createdAt,value
2018-01-18T00:00:04.824Z,3.90
2018-01-18T00:02:33.100Z,3.90
2018-01-18T00:05:01.385Z,3.90
2018-01-18T00:07:28.920Z,3.90
2018-01-18T00:09:56.435Z,3.90
2018-01-18T00:12:23.955Z,3.90
2018-01-18T00:14:52.321Z,4.00
2018-01-18T00:17:20.608Z,4.00
2018-01-18T00:19:48.907Z,4.00
2018-01-18T00:22:16.414Z,4.00
2018-01-18T00:24:43.930Z,4.10
2018-01-18T00:27:11.445Z,4.10
2018-01-18T00:29:38.978Z,4.10
2018-01-18T00:32:06.500Z,4.10
2018-01-18T00:34:34.037Z,4.10
2018-01-18T00:37:02.324Z,4.20
2018-01-18T00:39:29.865Z,4.10
2018-01-18T00:41:58.269Z,4.20
2018-01-18T00:44:25.830Z,4.20
2018-01-18T00:46:53.382Z,4.30
2018-01-18T00:49:20.940Z,4.30
2018-01-18T00:51:48.460Z,4.30
2018-01-18T00:54:16.013Z,4.40
2018-01-18T00:56:43.529Z,4.50
2018-01-18T00:59:11.089Z,4.50
2018-01-18T01:01:38.612Z,4.60
2018-01-18T01:04:06.293Z,4.70
2018-01-18T01:06:34.574Z,4.70
2018-01-18T01:09:02.080Z,4.70
2018-01-18T01:11:29.582Z,4.60
2018-01-18T01:13:57.878Z,4.80
2018-01-18T01:16:25.393Z,4.70
2018-01-18T01:18:52.921Z,4.70
2018-01-18T01:21:20.450Z,4.70
2018-01-18T01:23:47.973Z,4.70
2018-01-18T01:26:15.514Z,4.70
2018-01-18T01:28:43.019Z,4.70
2018-01-18T01:31:10.541Z,4.60
2018-01-18T01:33:38.042Z,4.60
2018-01-18T01:36:05.581Z,4.60
2018-01-18T01:38:33.862Z,4.60
2018-01-18T01:41:02.154Z,4.70
2018-01-18T01:43:29.663Z,4.60
2018-01-18T01:45:57.175Z,4.60
2018-01-18T01:48:36.528Z,4.60
2018-01-18T01:51:04.109Z,4.60
2018-01-18T01:53:31.631Z,4.60
2018-01-18T01:55:59.181Z,4.60
2018-01-18T01:58:27.456Z,4.50
2018-01-18T02:00:55.733Z,4.50
2018-01-18T02:03:24.010Z,4.50
2018-01-18T02:05:51.519Z,4.40
2018-01-18T02:08:19.029Z,4.50
2018-01-18T02:10:47.305Z,4.40
2018-01-18T02:13:14.903Z,4.40
2018-01-18T02:15:42.453Z,4.40
2018-01-18T02:18:09.986Z,4.50
2018-01-18T02:20:38.302Z,4.50
2018-01-18T02:23:05.812Z,4.50
2018-01-18T02:25:34.096Z,4.50
2018-01-18T02:28:02.413Z,4.40
2018-01-18T02:30:29.932Z,4.50
2018-01-18T02:32:57.445Z,4.50
2018-01-18T02:35:25.020Z,4.50
2018-01-18T02:37:52.557Z,4.50
2018-01-18T02:40:20.826Z,4.70
2018-01-18T02:42:48.369Z,4.70
2018-01-18T02:45:15.874Z,4.70
2018-01-18T02:47:43.390Z,4.70
2018-01-18T02:50:10.910Z,4.60
2018-01-18T02:52:39.210Z,4.80
2018-01-18T02:55:06.772Z,4.70
2018-01-18T02:57:34.288Z,4.70
2018-01-18T03:00:01.806Z,4.70
2018-01-18T03:02:29.336Z,4.70
2018-01-18T03:04:57.625Z,4.80
2018-01-18T03:07:25.169Z,4.80
2018-01-18T03:09:53.467Z,4.80
2018-01-18T03:12:20.997Z,4.80
2018-01-18T03:14:49.307Z,4.70
2018-01-18T03:17:16.835Z,4.70
2018-01-18T03:19:45.113Z,4.60
2018-01-18T03:22:12.645Z,4.60
2018-01-18T03:24:40.164Z,4.60
2018-01-18T03:27:07.715Z,4.70
2018-01-18T03:29:35.249Z,4.60
2018-01-18T03:32:02.786Z,4.70
2018-01-18T03:34:30.316Z,4.70
2018-01-18T03:36:57.842Z,4.70
2018-01-18T03:39:25.371Z,4.60
2018-01-18T03:41:53.649Z,4.60
2018-01-18T03:44:21.922Z,4.50
2018-01-18T03:46:50.197Z,4.60
2018-01-18T03:49:17.708Z,4.50
2018-01-18T03:51:45.230Z,4.60
2018-01-18T03:54:13.545Z,4.60
2018-01-18T03:56:41.050Z,4.60
2018-01-18T03:59:08.588Z,4.70
2018-01-18T04:01:36.073Z,4.60
2018-01-18T04:04:03.573Z,4.50
2018-01-18T04:06:31.109Z,4.60
2018-01-18T04:08:59.376Z,4.60
2018-01-18T04:11:27.671Z,4.50
2018-01-18T04:13:55.181Z,4.50
2018-01-18T04:16:22.689Z,4.50
2018-01-18T04:18:50.210Z,4.50
2018-01-18T04:21:18.496Z,4.50
2018-01-18T04:23:46.013Z,4.50
2018-01-18T04:26:13.570Z,4.50
2018-01-18T04:28:41.091Z,4.50
2018-01-18T04:31:09.344Z,4.50
2018-01-18T04:33:36.865Z,4.50
2018-01-18T04:36:04.388Z,4.50
2018-01-18T04:38:31.923Z,4.50
2018-01-18T04:40:59.450Z,4.50
2018-01-18T04:43:26.977Z,4.40
2018-01-18T04:45:54.487Z,4.50
2018-01-18T04:48:21.984Z,4.60
2018-01-18T04:50:49.503Z,4.60
2018-01-18T04:53:17.038Z,4.50
2018-01-18T04:55:44.557Z,4.50
2018-01-18T04:58:12.092Z,4.50
2018-01-18T05:00:39.613Z,4.60
2018-01-18T05:03:07.126Z,4.50
2018-01-18T05:05:35.395Z,4.60
2018-01-18T05:08:03.710Z,4.50
2018-01-18T05:10:31.229Z,4.50
2018-01-18T05:12:59.528Z,4.60
2018-01-18T05:15:27.056Z,4.60
2018-01-18T05:17:55.354Z,4.60
2018-01-18T05:20:23.635Z,4.60
2018-01-18T05:22:51.890Z,4.70
2018-01-18T05:25:20.204Z,4.60
2018-01-18T05:27:47.742Z,4.60
2018-01-18T05:30:16.025Z,4.70
2018-01-18T05:32:43.542Z,4.70
2018-01-18T05:35:11.065Z,4.80
2018-01-18T05:37:38.642Z,4.80
2018-01-18T05:40:06.161Z,4.90
2018-01-18T05:42:33.638Z,4.90
2018-01-18T05:45:01.726Z,4.90
2018-01-18T05:47:29.281Z,4.90
2018-01-18T05:49:56.786Z,4.90
2018-01-18T05:52:24.313Z,4.90
2018-01-18T05:54:51.889Z,4.90
2018-01-18T05:57:19.411Z,4.90
2018-01-18T05:59:46.984Z,5.00
2018-01-18T06:02:14.565Z,5.00
2018-01-18T06:04:42.172Z,4.90
2018-01-18T06:07:10.589Z,5.00
2018-01-18T06:09:38.125Z,4.90
2018-01-18T06:12:05.649Z,5.10
2018-01-18T06:14:33.197Z,5.10
2018-01-18T06:17:00.727Z,5.10
2018-01-18T06:19:28.381Z,5.00
2018-01-18T06:21:55.914Z,5.00
2018-01-18T06:24:23.470Z,5.00
2018-01-18T06:26:51.029Z,4.90
2018-01-18T06:29:18.532Z,4.90
2018-01-18T06:31:46.092Z,4.90
2018-01-18T06:34:13.579Z,4.90
2018-01-18T06:36:41.125Z,4.80
2018-01-18T06:39:08.866Z,4.80
2018-01-18T06:41:36.365Z,4.80
2018-01-18T06:44:04.844Z,4.80
2018-01-18T06:46:33.156Z,4.80
2018-01-18T06:49:00.692Z,4.80
2018-01-18T06:51:28.237Z,4.70
2018-01-18T06:53:56.592Z,4.70
2018-01-18T06:56:24.145Z,4.80
2018-01-18T06:58:51.676Z,4.90
2018-01-18T07:01:19.214Z,4.90
2018-01-18T07:03:46.774Z,4.90
2018-01-18T07:06:14.328Z,5.00
2018-01-18T07:08:41.860Z,4.90
2018-01-18T07:11:09.400Z,5.00
2018-01-18T07:13:36.953Z,5.00
2018-01-18T07:16:04.516Z,5.10
2018-01-18T07:18:32.198Z,5.20
2018-01-18T07:20:59.734Z,5.20
2018-01-18T07:23:27.310Z,5.20
2018-01-18T07:25:54.887Z,5.30
2018-01-18T07:28:23.201Z,5.40
2018-01-18T07:30:50.742Z,5.30
2018-01-18T07:33:18.298Z,5.40
2018-01-18T07:35:46.592Z,5.40
2018-01-18T07:38:14.119Z,5.40
2018-01-18T07:40:41.657Z,5.40
2018-01-18T07:43:09.218Z,5.40
2018-01-18T07:45:36.754Z,5.50
2018-01-18T07:48:04.308Z,5.50
2018-01-18T07:50:31.831Z,5.60
2018-01-18T07:52:59.400Z,5.70
2018-01-18T07:55:26.950Z,5.70
2018-01-18T07:57:55.292Z,5.90
2018-01-18T08:00:22.819Z,5.80
2018-01-18T08:02:55.988Z,5.90
2018-01-18T08:05:23.534Z,5.90
2018-01-18T08:07:51.095Z,5.90
2018-01-18T08:10:21.068Z,5.90
2018-01-18T08:12:48.646Z,5.90
2018-01-18T08:15:16.165Z,6.00
2018-01-18T08:17:43.721Z,6.00
2018-01-18T08:20:11.274Z,6.00
2018-01-18T08:22:38.841Z,6.10
2018-01-18T08:25:06.355Z,6.10
2018-01-18T08:27:33.932Z,6.10
2018-01-18T08:30:02.265Z,6.20
2018-01-18T08:32:29.807Z,6.20
2018-01-18T08:34:57.326Z,6.20
2018-01-18T08:37:25.663Z,6.30
2018-01-18T08:39:53.196Z,6.30
2018-01-18T08:42:20.745Z,6.40
2018-01-18T08:44:48.269Z,6.50
2018-01-18T08:47:15.829Z,6.50
2018-01-18T08:49:44.120Z,6.50
2018-01-18T08:52:12.430Z,6.60
2018-01-18T08:54:39.971Z,6.60
2018-01-18T08:57:07.503Z,6.60
2018-01-18T08:59:35.790Z,6.80
2018-01-18T09:02:04.090Z,6.80
2018-01-18T09:04:31.609Z,6.80
2018-01-18T09:06:59.954Z,6.90
2018-01-18T09:09:27.693Z,6.90
2018-01-18T09:11:55.238Z,6.90
2018-01-18T09:14:22.789Z,6.90
2018-01-18T09:16:51.069Z,7.00
2018-01-18T09:19:18.645Z,6.90
2018-01-18T09:21:46.188Z,6.90
2018-01-18T09:24:13.776Z,7.00
2018-01-18T09:26:41.305Z,7.00
2018-01-18T09:29:09.620Z,7.10
2018-01-18T09:31:37.185Z,7.10
2018-01-18T09:34:04.777Z,7.10
2018-01-18T09:36:32.309Z,7.20
2018-01-18T09:38:59.867Z,7.20
2018-01-18T09:41:27.438Z,7.20
2018-01-18T09:43:54.992Z,7.20
2018-01-18T09:46:22.507Z,7.30
2018-01-18T09:48:50.038Z,7.30
2018-01-18T09:51:18.365Z,7.30
2018-01-18T09:53:45.897Z,7.30
2018-01-18T09:56:14.174Z,7.40
2018-01-18T09:58:41.740Z,7.40
2018-01-18T10:01:09.310Z,7.50
2018-01-18T10:03:36.856Z,7.50
2018-01-18T10:06:04.394Z,7.60
2018-01-18T10:08:31.912Z,7.60
2018-01-18T10:10:59.473Z,7.50
2018-01-18T10:13:27.052Z,7.60
2018-01-18T10:15:54.593Z,7.60
2018-01-18T10:18:22.101Z,7.70
2018-01-18T10:20:49.743Z,7.70
2018-01-18T10:23:17.237Z,7.70
2018-01-18T10:25:44.796Z,7.80
2018-01-18T10:28:12.330Z,7.80
2018-01-18T10:30:40.626Z,7.90
2018-01-18T10:33:08.927Z,7.80
2018-01-18T10:35:36.464Z,7.80
2018-01-18T10:38:03.985Z,7.80
2018-01-18T10:40:31.528Z,7.80
2018-01-18T10:42:59.088Z,7.90
2018-01-18T10:45:26.620Z,7.90
2018-01-18T10:47:54.140Z,7.90
2018-01-18T10:50:22.512Z,7.90
2018-01-18T10:52:50.825Z,8.00
2018-01-18T10:55:18.394Z,8.00
2018-01-18T10:57:45.952Z,8.00
2018-01-18T11:00:13.483Z,8.00
2018-01-18T11:02:41.020Z,8.10
2018-01-18T11:05:09.356Z,8.10
2018-01-18T11:07:36.861Z,8.10
2018-01-18T11:10:04.422Z,8.10
2018-01-18T11:12:31.954Z,8.10
2018-01-18T11:14:59.512Z,8.20
2018-01-18T11:17:27.049Z,8.20
2018-01-18T11:19:54.583Z,8.20
2018-01-18T11:22:22.878Z,8.20
2018-01-18T11:24:50.408Z,8.20
2018-01-18T11:27:18.726Z,8.30
2018-01-18T11:29:46.220Z,8.30
2018-01-18T11:32:14.017Z,8.40
2018-01-18T11:34:42.306Z,8.30
2018-01-18T11:37:09.857Z,8.20
2018-01-18T11:39:38.185Z,8.30
2018-01-18T11:42:05.725Z,8.30
2018-01-18T11:44:33.250Z,8.30
2018-01-18T11:47:00.781Z,8.30
2018-01-18T11:49:28.328Z,8.30
2018-01-18T11:51:55.871Z,8.40
2018-01-18T11:54:23.391Z,8.40
2018-01-18T11:56:50.958Z,8.40
2018-01-18T11:59:19.192Z,8.50
2018-01-18T12:01:46.741Z,8.50
2018-01-18T12:04:14.253Z,8.60
2018-01-18T12:06:41.778Z,8.50
2018-01-18T12:09:09.302Z,8.50
2018-01-18T12:11:36.825Z,8.50
2018-01-18T12:14:04.337Z,8.60
2018-01-18T12:16:31.803Z,8.50
2018-01-18T12:18:59.256Z,8.50
2018-01-18T12:21:26.708Z,8.50
2018-01-18T12:23:54.163Z,8.60
2018-01-18T12:26:21.623Z,8.50
2018-01-18T12:28:49.072Z,8.50
2018-01-18T12:31:16.533Z,8.40
2018-01-18T12:33:44.001Z,8.40
2018-01-18T12:36:11.517Z,8.50
2018-01-18T12:38:38.971Z,8.60
2018-01-18T12:41:06.433Z,8.60
2018-01-18T12:43:33.909Z,8.60
2018-01-18T12:46:01.652Z,8.70
2018-01-18T12:48:29.128Z,8.70
2018-01-18T12:50:56.779Z,8.70
2018-01-18T12:53:24.329Z,8.80
2018-01-18T12:55:51.848Z,8.80
2018-01-18T12:58:19.342Z,8.80
2018-01-18T13:00:46.853Z,8.90
2018-01-18T13:03:14.352Z,8.90
2018-01-18T13:05:41.843Z,8.90
2018-01-18T13:08:09.323Z,8.90
2018-01-18T13:10:36.937Z,8.80
2018-01-18T13:13:04.445Z,8.90
2018-01-18T13:15:32.066Z,9.00
2018-01-18T13:17:59.678Z,9.00
2018-01-18T13:20:27.977Z,8.90
2018-01-18T13:22:55.523Z,8.90
2018-01-18T13:25:23.055Z,9.00
2018-01-18T13:27:50.606Z,9.00
2018-01-18T13:30:19.751Z,9.00
2018-01-18T13:32:47.277Z,9.00
2018-01-18T13:35:14.789Z,9.10
2018-01-18T13:37:42.321Z,9.10
2018-01-18T13:40:10.609Z,9.20
2018-01-18T13:42:38.150Z,9.10
2018-01-18T13:45:06.438Z,9.40
2018-01-18T13:47:34.722Z,9.30
2018-01-18T13:50:02.225Z,9.30
2018-01-18T13:52:29.774Z,9.40
2018-01-18T13:54:57.323Z,9.50
2018-01-18T13:57:24.881Z,9.40
2018-01-18T13:59:52.423Z,9.40
2018-01-18T14:02:19.922Z,9.40
2018-01-18T14:04:47.428Z,9.40
2018-01-18T14:07:15.703Z,9.60
2018-01-18T14:09:43.996Z,9.60
2018-01-18T14:12:11.512Z,9.60
2018-01-18T14:14:39.037Z,9.70
2018-01-18T14:17:06.524Z,9.80
2018-01-18T14:19:34.040Z,9.70
2018-01-18T14:22:01.525Z,9.60
2018-01-18T14:24:29.030Z,9.60
2018-01-18T14:26:57.323Z,9.60
2018-01-18T14:29:24.906Z,9.60
2018-01-18T14:31:52.450Z,9.60
2018-01-18T14:34:19.966Z,9.70
2018-01-18T14:36:48.272Z,9.80
2018-01-18T14:39:15.840Z,9.80
2018-01-18T14:41:43.394Z,9.70
2018-01-18T14:44:10.932Z,9.70
2018-01-18T14:46:38.582Z,9.80
2018-01-18T14:49:06.108Z,9.70
2018-01-18T14:51:33.642Z,9.70
2018-01-18T14:54:01.186Z,9.70
2018-01-18T14:56:28.766Z,9.60
2018-01-18T14:58:56.306Z,9.70
2018-01-18T15:01:23.838Z,9.60
2018-01-18T15:03:51.378Z,9.60
2018-01-18T15:06:18.904Z,9.70
2018-01-18T15:08:46.419Z,9.70
2018-01-18T15:11:14.730Z,9.70
2018-01-18T15:13:42.288Z,9.70
2018-01-18T15:16:09.892Z,9.70
2018-01-18T15:18:37.418Z,9.60
2018-01-18T15:21:05.090Z,9.60
2018-01-18T15:23:32.592Z,9.50
2018-01-18T15:26:01.049Z,9.50
2018-01-18T15:28:28.615Z,9.50
2018-01-18T15:30:56.166Z,9.60
2018-01-18T15:33:25.509Z,9.60
2018-01-18T15:35:53.956Z,9.60
2018-01-18T15:38:21.488Z,9.60
2018-01-18T15:40:49.868Z,9.60
2018-01-18T15:43:17.413Z,9.60
2018-01-18T15:45:46.313Z,9.70
2018-01-18T15:48:13.857Z,9.60
2018-01-18T15:50:42.717Z,9.60
2018-01-18T15:53:11.016Z,9.60
2018-01-18T15:55:38.592Z,9.60
2018-01-18T15:58:06.138Z,9.60
2018-01-18T16:00:33.665Z,9.60
2018-01-18T16:03:01.219Z,9.70
2018-01-18T16:05:28.842Z,9.50
2018-01-18T16:07:57.303Z,9.50
2018-01-18T16:10:24.860Z,9.50
2018-01-18T16:12:52.407Z,9.40
2018-01-18T16:15:19.949Z,9.40
2018-01-18T16:17:47.496Z,9.40
2018-01-18T16:20:15.044Z,9.30
2018-01-18T16:22:42.573Z,9.40
2018-01-18T16:25:10.102Z,9.30
2018-01-18T16:27:37.645Z,9.30
2018-01-18T16:30:05.948Z,9.20
2018-01-18T16:32:33.498Z,9.20
2018-01-18T16:35:01.030Z,9.20
2018-01-18T16:37:28.518Z,9.20
2018-01-18T16:39:56.928Z,9.30
2018-01-18T16:42:24.490Z,9.30
2018-01-18T16:44:52.046Z,9.30
2018-01-18T16:47:19.589Z,9.30
2018-01-18T16:49:47.130Z,9.30
2018-01-18T16:52:14.665Z,9.30
2018-01-18T16:54:42.182Z,9.30
2018-01-18T16:57:10.890Z,9.40
2018-01-18T16:59:38.422Z,9.40
2018-01-18T17:02:06.796Z,9.30
2018-01-18T17:04:34.351Z,9.30
2018-01-18T17:07:02.448Z,9.30
2018-01-18T17:09:29.961Z,9.40
2018-01-18T17:11:58.267Z,9.30
2018-01-18T17:14:26.233Z,9.20
2018-01-18T17:16:53.786Z,9.30
2018-01-18T17:22:15.809Z,9.20
2018-01-18T17:24:44.184Z,9.20
2018-01-18T17:27:12.492Z,9.20
2018-01-18T17:29:40.076Z,9.20
2018-01-18T17:32:07.574Z,9.10
2018-01-18T17:34:35.079Z,9.00
2018-01-18T17:37:02.595Z,9.00
2018-01-18T17:39:30.880Z,9.00
2018-01-18T17:41:59.182Z,9.00
2018-01-18T17:44:26.708Z,8.90
2018-01-18T17:47:05.946Z,8.70
2018-01-18T17:49:34.248Z,8.60
2018-01-18T17:52:01.813Z,8.60
2018-01-18T17:54:29.354Z,8.50
2018-01-18T17:56:57.864Z,8.50
2018-01-18T17:59:32.194Z,8.50
2018-01-18T18:02:00.584Z,8.50
2018-01-18T18:04:28.170Z,8.40
2018-01-18T18:07:06.421Z,8.30
2018-01-18T18:09:35.241Z,8.30
2018-01-18T18:12:02.801Z,8.30
2018-01-18T18:14:30.396Z,8.20
2018-01-18T18:16:58.685Z,8.10
2018-01-18T18:19:27.072Z,8.10
2018-01-18T18:21:54.628Z,8.10
2018-01-18T18:24:22.937Z,8.00
2018-01-18T18:26:50.462Z,8.00
2018-01-18T18:29:18.793Z,7.90
2018-01-18T18:31:46.309Z,7.80
2018-01-18T18:34:14.689Z,7.80
2018-01-18T18:36:42.230Z,7.80
2018-01-18T18:39:09.789Z,7.70
2018-01-18T18:41:38.080Z,7.70
2018-01-18T18:44:05.654Z,7.70
2018-01-18T18:46:33.168Z,7.70
2018-01-18T18:49:00.760Z,7.70
2018-01-18T18:51:29.082Z,7.60
2018-01-18T18:53:56.664Z,7.60
2018-01-18T18:56:24.186Z,7.50
2018-01-18T18:58:51.726Z,7.50
2018-01-18T19:01:19.266Z,7.50
2018-01-18T19:03:47.562Z,7.60
2018-01-18T19:06:15.130Z,7.60
2018-01-18T19:08:42.658Z,7.60
2018-01-18T19:11:11.092Z,7.40
2018-01-18T19:13:38.677Z,7.40
2018-01-18T19:16:06.237Z,7.40
2018-01-18T19:18:33.792Z,7.40
2018-01-18T19:21:01.414Z,7.40
2018-01-18T19:23:28.936Z,7.50
2018-01-18T19:25:57.306Z,7.50
2018-01-18T19:28:25.612Z,7.50
2018-01-18T19:30:54.223Z,7.30
2018-01-18T19:33:21.777Z,7.30
2018-01-18T19:35:49.374Z,7.30
2018-01-18T19:38:16.913Z,7.20
2018-01-18T19:40:44.460Z,7.20
2018-01-18T19:43:11.993Z,7.20
2018-01-18T19:45:52.319Z,7.40
2018-01-18T19:48:19.925Z,7.30
2018-01-18T19:50:47.509Z,7.30
2018-01-18T19:53:15.093Z,7.20
2018-01-18T19:55:42.633Z,7.10
2018-01-18T19:58:10.118Z,7.10
2018-01-18T20:00:37.660Z,7.10
2018-01-18T20:03:05.335Z,7.00
2018-01-18T20:05:32.888Z,7.00
2018-01-18T20:08:00.423Z,7.00
2018-01-18T20:13:15.549Z,7.00
2018-01-18T20:15:43.070Z,7.00
2018-01-18T20:18:10.690Z,6.90
2018-01-18T20:20:39.055Z,6.90
2018-01-18T20:23:07.804Z,6.80
2018-01-18T20:25:35.455Z,6.80
2018-01-18T20:28:04.084Z,6.80
2018-01-18T20:30:32.444Z,6.80
2018-01-18T20:33:00.218Z,6.80
2018-01-18T20:35:37.761Z,6.80
2018-01-18T20:41:03.754Z,6.70
2018-01-18T20:43:40.361Z,6.70
2018-01-18T20:46:07.993Z,6.70
2018-01-18T20:48:35.607Z,6.70
2018-01-18T20:51:03.176Z,6.60
2018-01-18T20:53:30.719Z,6.60
2018-01-18T20:55:58.287Z,6.60
2018-01-18T20:58:25.887Z,6.80
2018-01-18T21:00:53.501Z,6.80
2018-01-18T21:03:21.029Z,6.90
2018-01-18T21:05:51.580Z,7.00
2018-01-18T21:08:19.145Z,7.00
2018-01-18T21:10:46.701Z,7.00
2018-01-18T21:13:14.278Z,7.00
2018-01-18T21:15:43.054Z,7.00
2018-01-18T21:18:10.602Z,7.00
2018-01-18T21:20:38.241Z,7.00
2018-01-18T21:23:05.811Z,7.00
2018-01-18T21:25:33.457Z,7.00
2018-01-18T21:28:01.022Z,7.10
2018-01-18T21:30:29.380Z,7.10
2018-01-18T21:33:11.497Z,7.10
2018-01-18T21:35:49.166Z,7.20
2018-01-18T21:38:17.583Z,7.10
2018-01-18T21:40:45.951Z,7.10
2018-01-18T21:43:13.484Z,7.10
2018-01-18T21:45:48.381Z,7.10
2018-01-18T21:48:15.914Z,7.00
2018-01-18T21:50:44.231Z,7.00
2018-01-18T21:53:11.791Z,7.00
2018-01-18T21:58:42.687Z,6.90
2018-01-18T22:01:10.225Z,6.90
2018-01-18T22:03:37.766Z,6.90
2018-01-18T22:06:05.352Z,6.80
2018-01-18T22:08:32.900Z,6.90
2018-01-18T22:11:00.443Z,6.80
2018-01-18T22:13:28.001Z,6.80
2018-01-18T22:15:55.532Z,6.80
2018-01-18T22:18:23.848Z,7.00
2018-01-18T22:20:51.366Z,7.00
2018-01-18T22:23:19.653Z,7.00
2018-01-18T22:25:47.956Z,7.10
2018-01-18T22:28:15.493Z,7.00
2018-01-18T22:30:43.029Z,7.10
2018-01-18T22:33:11.393Z,7.20
2018-01-18T22:35:38.929Z,7.20
2018-01-18T22:38:06.472Z,7.30
2018-01-18T22:40:34.045Z,7.20
2018-01-18T22:43:01.605Z,7.10
2018-01-18T22:45:29.147Z,7.10
2018-01-18T22:47:56.681Z,7.10
2018-01-18T22:50:24.243Z,7.10
2018-01-18T22:52:51.777Z,7.00
2018-01-18T22:55:20.068Z,7.10
2018-01-18T22:57:48.398Z,7.20
2018-01-18T23:00:19.768Z,7.20
2018-01-18T23:02:47.304Z,7.20
2018-01-18T23:05:14.844Z,7.10
2018-01-18T23:07:42.413Z,7.20
2018-01-18T23:10:09.953Z,7.10
2018-01-18T23:12:37.479Z,7.30
2018-01-18T23:15:05.020Z,7.20
2018-01-18T23:17:32.568Z,7.20
2018-01-18T23:20:00.104Z,7.20
2018-01-18T23:22:27.643Z,7.20
2018-01-18T23:24:55.185Z,7.20
2018-01-18T23:27:23.511Z,7.20
2018-01-18T23:29:51.037Z,7.20
2018-01-18T23:32:18.624Z,7.20
2018-01-18T23:34:46.197Z,7.10
2018-01-18T23:37:13.718Z,7.10
2018-01-18T23:39:41.261Z,7.10
2018-01-18T23:42:09.551Z,7.10
2018-01-18T23:44:37.876Z,7.10
2018-01-18T23:47:05.454Z,7.10
2018-01-18T23:49:33.001Z,7.10
2018-01-18T23:52:00.534Z,7.10
2018-01-18T23:54:28.064Z,7.20
2018-01-18T23:56:55.618Z,7.30
2018-01-18T23:59:23.948Z,7.20
